Time;durP1;ratioP1;P1;durP2;ratioP2;P2;SDS_P1;SDS_P2;PMS_P1;PMS_P2;Temp;Humidity;BMP_temperature;BMP_pressure;BME280_temperature;BME280_humidity;BME280_pressure;Samples;Min_cycle;Max_cycle;Signal;HPM_P1;HPM_P2
2022/01/08 00:01:00;;;;;;;1.67;1.20;;;;;18.70;99826.00;;;;2088187;28;20216;-54
2022/01/08 00:02:03;;;;;;;1.50;1.37;;;;;18.60;99829.00;;;;2088423;28;20209;-54
2022/01/08 00:03:03;;;;;;;1.95;1.55;;;;;18.70;99823.00;;;;2088661;28;20209;-54
2022/01/08 00:04:03;;;;;;;1.33;1.17;;;;;18.70;99829.00;;;;2088091;28;20220;-54
2022/01/08 00:05:04;;;;;;;2.00;1.30;;;;;18.70;99827.00;;;;2087328;28;20216;-54
2022/01/08 00:06:04;;;;;;;1.50;1.10;;;;;18.70;99833.00;;;;2087583;28;20312;-54
2022/01/08 00:07:05;;;;;;;1.33;1.23;;;;;18.70;99825.00;;;;2088374;28;20215;-54
2022/01/08 00:08:05;;;;;;;1.67;1.30;;;;;18.50;99829.00;;;;2088312;28;20205;-54
2022/01/08 00:09:06;;;;;;;1.57;1.27;;;;;18.60;99834.00;;;;2088336;28;20205;-54
2022/01/08 00:10:06;;;;;;;2.20;1.27;;;;;18.70;99835.00;;;;2088294;28;20201;-54
2022/01/08 00:11:08;;;;;;;1.50;1.17;;;;;18.60;99829.00;;;;2088270;28;20669;-54
2022/01/08 00:12:08;;;;;;;1.55;1.45;;;;;18.60;99829.00;;;;2084847;28;20209;-54
2022/01/08 00:13:09;;;;;;;1.80;1.03;;;;;18.60;99826.00;;;;2088385;28;20201;-54
2022/01/08 00:14:10;;;;;;;1.67;1.27;;;;;18.60;99833.00;;;;2088345;28;20208;-54
2022/01/08 00:15:11;;;;;;;1.50;1.20;;;;;18.60;99832.00;;;;2088327;28;20431;-54
2022/01/08 00:16:11;;;;;;;1.70;1.47;;;;;18.60;99834.00;;;;2087691;28;20695;-54
2022/01/08 00:17:11;;;;;;;1.40;0.97;;;;;18.60;99846.00;;;;2087557;28;20409;-54
2022/01/08 00:18:12;;;;;;;2.10;1.17;;;;;18.70;99855.00;;;;2088336;28;21136;-54
2022/01/08 00:19:12;;;;;;;1.80;1.47;;;;;18.60;99838.00;;;;2086983;28;20217;-54
2022/01/08 00:20:13;;;;;;;1.60;1.37;;;;;18.60;99852.00;;;;2088238;28;20216;-54
2022/01/08 00:21:13;;;;;;;3.60;1.00;;;;;18.60;99846.00;;;;2087721;28;20239;-54
2022/01/08 00:22:13;;;;;;;1.33;1.10;;;;;18.60;99846.00;;;;2088204;28;20208;-54
2022/01/08 00:23:14;;;;;;;1.90;1.30;;;;;18.60;99844.00;;;;2088130;28;20204;-54
2022/01/08 00:24:15;;;;;;;1.87;1.40;;;;;18.60;99838.00;;;;2088201;28;20216;-54
2022/01/08 00:25:16;;;;;;;1.40;1.27;;;;;18.60;99834.00;;;;2088221;28;20213;-54
2022/01/08 00:26:16;;;;;;;1.23;1.10;;;;;18.60;99840.00;;;;2088094;28;20225;-54
2022/01/08 00:27:16;;;;;;;1.43;1.10;;;;;18.60;99839.00;;;;2088148;28;20211;-54
2022/01/08 00:28:16;;;;;;;1.47;1.23;;;;;18.60;99833.00;;;;2088101;28;20196;-53
2022/01/08 00:29:17;;;;;;;1.33;1.23;;;;;18.60;99839.00;;;;2085502;28;20201;-54
2022/01/08 00:30:17;;;;;;;1.30;1.10;;;;;18.60;99838.00;;;;2085267;28;20745;-54
2022/01/08 00:31:17;;;;;;;1.87;1.40;;;;;18.60;99846.00;;;;2085931;28;20235;-54
2022/01/08 00:32:18;;;;;;;1.63;1.40;;;;;18.60;99829.00;;;;2087943;28;20710;-54
2022/01/08 00:33:19;;;;;;;1.70;1.37;;;;;18.60;99841.00;;;;2088306;28;20204;-54
2022/01/08 00:34:19;;;;;;;1.80;1.23;;;;;18.60;99841.00;;;;2088078;28;20209;-54
2022/01/08 00:35:20;;;;;;;1.97;1.30;;;;;18.60;99838.00;;;;2088308;28;20232;-54
2022/01/08 00:36:20;;;;;;;1.63;1.37;;;;;18.60;99839.00;;;;2088187;28;20216;-54
2022/01/08 00:37:20;;;;;;;2.00;1.33;;;;;18.60;99839.00;;;;2087974;28;20236;-54
2022/01/08 00:38:21;;;;;;;1.50;1.30;;;;;18.60;99841.00;;;;2088120;28;20247;-54
2022/01/08 00:39:21;;;;;;;1.60;1.30;;;;;18.60;99845.00;;;;2088108;28;20209;-54
2022/01/08 00:40:23;;;;;;;1.40;1.30;;;;;18.60;99839.00;;;;2088109;28;20298;-54
2022/01/08 00:41:23;;;;;;;1.45;1.25;;;;;18.60;99835.00;;;;2086773;28;20785;-54
2022/01/08 00:42:24;;;;;;;1.60;1.30;;;;;18.60;99838.00;;;;2088167;28;20282;-54
2022/01/08 00:43:24;;;;;;;1.80;1.30;;;;;18.60;99826.00;;;;2088058;28;20627;-54
2022/01/08 00:44:25;;;;;;;1.43;1.27;;;;;18.60;99834.00;;;;2088262;28;20236;-54
2022/01/08 00:45:25;;;;;;;1.77;1.30;;;;;18.60;99835.00;;;;2087912;28;20584;-54
2022/01/08 00:46:25;;;;;;;1.73;1.13;;;;;18.60;99835.00;;;;2087412;28;20614;-54
2022/01/08 00:47:26;;;;;;;1.80;1.20;;;;;18.60;99832.00;;;;2087970;28;20209;-54
2022/01/08 00:48:26;;;;;;;1.70;1.27;;;;;18.60;99838.00;;;;2087613;28;20213;-54
2022/01/08 00:49:27;;;;;;;1.77;1.27;;;;;18.60;99840.00;;;;2087665;28;20212;-54
2022/01/08 00:50:27;;;;;;;1.90;1.20;;;;;18.60;99838.00;;;;2087709;28;20212;-54
2022/01/08 00:51:28;;;;;;;1.40;1.30;;;;;18.60;99839.00;;;;2087990;28;20946;-54
2022/01/08 00:52:28;;;;;;;1.30;1.10;;;;;18.60;99849.00;;;;2088140;28;20209;-54
2022/01/08 00:53:28;;;;;;;1.23;1.13;;;;;18.60;99835.00;;;;2087993;28;20236;-54
2022/01/08 00:54:29;;;;;;;2.33;1.37;;;;;18.60;99850.00;;;;2088020;28;20266;-54
2022/01/08 00:55:29;;;;;;;1.50;1.10;;;;;18.60;99845.00;;;;2088236;28;20209;-54
2022/01/08 00:56:29;;;;;;;1.77;1.40;;;;;18.60;99844.00;;;;2087791;28;20248;-53
2022/01/08 00:57:30;;;;;;;1.90;1.33;;;;;18.60;99848.00;;;;2087979;28;20208;-54
2022/01/08 00:58:30;;;;;;;1.40;1.20;;;;;18.60;99848.00;;;;2088055;28;20243;-54
2022/01/08 00:59:30;;;;;;;1.80;1.27;;;;;18.60;99847.00;;;;2087810;28;20220;-54
2022/01/08 01:00:31;;;;;;;1.70;1.20;;;;;18.60;99839.00;;;;2087324;28;20235;-54
2022/01/08 01:01:31;;;;;;;2.53;1.20;;;;;18.60;99848.00;;;;2088032;28;20240;-54
2022/01/08 01:02:31;;;;;;;1.50;1.13;;;;;18.60;99838.00;;;;2088082;28;20216;-54
2022/01/08 01:03:32;;;;;;;2.00;1.47;;;;;18.50;99842.00;;;;2088006;28;20208;-54
2022/01/08 01:04:32;;;;;;;1.33;1.20;;;;;18.60;99848.00;;;;2087948;28;20252;-54
2022/01/08 01:05:32;;;;;;;2.33;1.50;;;;;18.60;99848.00;;;;2087927;28;20216;-54
2022/01/08 01:06:33;;;;;;;1.60;1.40;;;;;18.60;99853.00;;;;2087932;28;20232;-54
2022/01/08 01:07:33;;;;;;;1.20;1.10;;;;;18.60;99850.00;;;;2088027;28;20218;-54
2022/01/08 01:08:34;;;;;;;2.10;1.50;;;;;18.60;99852.00;;;;2087971;28;20252;-53
2022/01/08 01:09:34;;;;;;;1.50;1.23;;;;;18.60;99842.00;;;;2088021;28;20225;-54
2022/01/08 01:10:34;;;;;;;1.57;1.20;;;;;18.50;99845.00;;;;2087675;28;20248;-54
2022/01/08 01:11:35;;;;;;;1.47;1.37;;;;;18.50;99848.00;;;;2084283;28;20209;-54
2022/01/08 01:12:35;;;;;;;1.60;1.20;;;;;18.60;99841.00;;;;2088213;28;20669;-54
2022/01/08 01:13:35;;;;;;;1.40;1.20;;;;;18.50;99847.00;;;;2088095;28;20256;-54
2022/01/08 01:14:36;;;;;;;1.40;1.27;;;;;18.50;99839.00;;;;2087983;28;20219;-53
2022/01/08 01:15:36;;;;;;;1.90;1.27;;;;;18.50;99840.00;;;;2087845;28;20213;-54
2022/01/08 01:16:36;;;;;;;1.63;1.30;;;;;18.60;99843.00;;;;2088535;28;20213;-54
2022/01/08 01:17:37;;;;;;;2.00;1.17;;;;;18.50;99838.00;;;;2089606;28;20246;-55
2022/01/08 01:18:37;;;;;;;1.60;1.30;;;;;18.50;99834.00;;;;2088924;28;20204;-54
2022/01/08 01:19:38;;;;;;;1.80;1.60;;;;;18.50;99837.00;;;;2089538;28;20266;-54
2022/01/08 01:20:38;;;;;;;1.27;1.17;;;;;18.50;99836.00;;;;2089375;28;20219;-54
2022/01/08 01:21:38;;;;;;;1.20;1.03;;;;;18.50;99842.00;;;;2089627;28;20212;-54
2022/01/08 01:22:53;;;;;;;1.50;1.07;;;;;18.50;99833.00;;;;2089870;28;20248;-54
2022/01/08 01:23:54;;;;;;;1.55;1.15;;;;;18.50;99840.00;;;;2087262;28;20212;-54
2022/01/08 01:25:05;;;;;;;1.90;1.40;;;;;18.50;99832.00;;;;2089024;28;20220;-54
2022/01/08 01:26:10;;;;;;;1.83;1.27;;;;;18.50;99844.00;;;;2085841;28;20496;-54
2022/01/08 01:29:52;;;;;;;1.70;1.42;;;;;18.50;99847.00;;;;2089116;28;21221;-54
2022/01/08 01:41:39;;;;;;;1.60;1.40;;;;;18.50;99852.00;;;;2085631;28;20619;-54
2022/01/08 01:43:05;;;;;;;1.30;1.20;;;;;18.50;99856.00;;;;2085888;28;20213;-53
2022/01/08 01:47:47;;;;;;;1.35;1.10;;;;;18.50;99864.00;;;;2087062;28;20236;-54
2022/01/08 01:48:47;;;;;;;1.80;1.20;;;;;18.50;99862.00;;;;2089496;28;20580;-54
2022/01/08 01:49:48;;;;;;;1.87;1.30;;;;;18.50;99858.00;;;;2088885;28;20594;-55
2022/01/08 01:50:48;;;;;;;2.63;1.27;;;;;18.50;99858.00;;;;2088729;28;20646;-54
2022/01/08 01:51:48;;;;;;;2.50;1.60;;;;;18.50;99859.00;;;;2089673;28;20647;-54
2022/01/08 01:52:49;;;;;;;2.03;1.40;;;;;18.50;99862.00;;;;2092328;28;20711;-54
2022/01/08 01:53:49;;;;;;;1.30;1.20;;;;;18.50;99862.00;;;;2094193;28;20217;-54
2022/01/08 01:54:50;;;;;;;1.93;1.30;;;;;18.50;99866.00;;;;2090711;28;20574;-54
2022/01/08 01:55:50;;;;;;;1.13;0.90;;;;;18.50;99859.00;;;;2089420;28;20212;-54
2022/01/08 01:56:50;;;;;;;1.13;1.00;;;;;18.50;99875.00;;;;2088715;28;20247;-54
2022/01/08 01:57:52;;;;;;;1.60;1.50;;;;;18.50;99876.00;;;;2089857;28;20259;-54
2022/01/08 01:58:52;;;;;;;1.58;1.27;;;;;18.50;99875.00;;;;2093584;28;20221;-54
2022/01/08 01:59:52;;;;;;;1.10;0.93;;;;;18.50;99873.00;;;;2091121;28;20766;-54
2022/01/08 02:00:53;;;;;;;1.20;1.00;;;;;18.50;99868.00;;;;2080739;28;20221;-54
2022/01/08 02:01:53;;;;;;;1.70;1.30;;;;;18.50;99868.00;;;;2080917;28;20248;-54
2022/01/08 02:02:53;;;;;;;2.60;1.37;;;;;18.50;99871.00;;;;2090097;28;20209;-54
2022/01/08 02:03:54;;;;;;;1.37;1.20;;;;;18.50;99872.00;;;;2090034;28;20561;-54
2022/01/08 02:04:54;;;;;;;2.13;1.30;;;;;18.50;99872.00;;;;2089794;28;20736;-54
2022/01/08 02:05:54;;;;;;;1.20;1.10;;;;;18.40;99870.00;;;;2080401;28;20232;-54
2022/01/08 02:06:55;;;;;;;1.60;1.10;;;;;18.50;99876.00;;;;2080294;28;20210;-54
2022/01/08 02:07:55;;;;;;;3.50;1.33;;;;;18.50;99867.00;;;;2089863;28;20651;-54
2022/01/08 02:08:56;;;;;;;1.60;1.47;;;;;18.50;99873.00;;;;2089881;28;20232;-54
2022/01/08 02:09:56;;;;;;;1.60;1.30;;;;;18.40;99872.00;;;;2089736;28;20201;-54
2022/01/08 02:10:57;;;;;;;1.27;1.10;;;;;18.50;99877.00;;;;2089809;28;20206;-54
2022/01/08 02:12:01;;;;;;;2.40;1.50;;;;;18.40;99876.00;;;;2089843;28;20595;-54
2022/01/08 02:13:01;;;;;;;1.80;1.10;;;;;18.50;99882.00;;;;2089822;28;20267;-54
2022/01/08 02:14:03;;;;;;;1.33;1.23;;;;;18.50;99873.00;;;;2090071;28;20209;-54
2022/01/08 02:15:04;;;;;;;1.50;1.30;;;;;18.40;99875.00;;;;2089583;28;20216;-54
2022/01/08 02:16:06;;;;;;;1.80;1.38;;;;;18.40;99875.00;;;;2089806;28;20258;-54
2022/01/08 02:17:07;;;;;;;2.22;1.45;;;;;18.40;99880.00;;;;2089836;28;20791;-54
2022/01/08 02:18:07;;;;;;;1.27;1.17;;;;;18.40;99887.00;;;;2089459;28;20209;-54
2022/01/08 02:19:07;;;;;;;1.60;1.30;;;;;18.50;99880.00;;;;2089589;28;20228;-54
2022/01/08 02:20:08;;;;;;;1.10;1.00;;;;;18.40;99876.00;;;;2089406;28;20213;-54
2022/01/08 02:21:09;;;;;;;1.40;1.20;;;;;18.40;99878.00;;;;2088341;28;24997;-54
2022/01/08 02:22:15;;;;;;;1.53;1.43;;;;;18.40;99879.00;;;;2072460;28;20226;-54
2022/01/08 02:23:15;;;;;;;1.20;0.80;;;;;18.40;99876.00;;;;2073170;28;20224;-54
2022/01/08 02:24:16;;;;;;;1.40;1.10;;;;;18.40;99872.00;;;;2081308;28;20217;-54
2022/01/08 02:25:21;;;;;;;1.33;1.13;;;;;18.50;99864.00;;;;2081315;28;20677;-54
2022/01/08 02:26:21;;;;;;;1.38;1.27;;;;;18.40;99867.00;;;;2085286;28;20283;-55
2022/01/08 02:27:22;;;;;;;1.73;1.30;;;;;18.40;99855.00;;;;2089464;28;20618;-54
2022/01/08 02:28:22;;;;;;;1.60;1.30;;;;;18.40;99852.00;;;;2088284;28;20626;-55
2022/01/08 02:29:23;;;;;;;2.03;1.43;;;;;18.40;99856.00;;;;2089319;28;20247;-55
2022/01/08 02:30:24;;;;;;;1.60;1.15;;;;;18.40;99857.00;;;;2088804;28;20710;-54
2022/01/08 02:31:24;;;;;;;2.40;1.10;;;;;18.40;99854.00;;;;2089111;28;20303;-54
2022/01/08 02:32:28;;;;;;;1.40;1.13;;;;;18.40;99851.00;;;;2089379;28;20292;-53
2022/01/08 02:33:28;;;;;;;1.90;1.20;;;;;18.40;99851.00;;;;2088627;28;20238;-54
2022/01/08 02:34:29;;;;;;;1.37;1.27;;;;;18.40;99846.00;;;;2076473;28;20217;-54
2022/01/08 02:35:30;;;;;;;1.42;1.08;;;;;18.40;99856.00;;;;2088841;28;20228;-54
2022/01/08 02:36:30;;;;;;;1.70;1.30;;;;;18.40;99856.00;;;;2089232;28;20731;-54
2022/01/08 02:37:31;;;;;;;2.07;1.30;;;;;18.40;99851.00;;;;2088625;28;20215;-55
2022/01/08 02:38:31;;;;;;;1.63;1.17;;;;;18.40;99848.00;;;;2088536;28;20205;-54
2022/01/08 02:39:38;;;;;;;1.67;1.10;;;;;18.40;99855.00;;;;2089087;28;20314;-54
2022/01/08 02:40:38;;;;;;;1.50;1.33;;;;;18.40;99856.00;;;;2088837;28;20209;-54
2022/01/08 02:41:40;;;;;;;3.50;1.30;;;;;18.40;99859.00;;;;2089120;28;20578;-54
2022/01/08 02:42:50;;;;;;;1.50;1.20;;;;;18.40;99867.00;;;;2089085;28;20255;-54
2022/01/08 02:43:53;;;;;;;1.88;1.38;;;;;18.40;99858.00;;;;2088515;28;20224;-54
2022/01/08 02:44:53;;;;;;;1.38;1.25;;;;;18.40;99861.00;;;;2088400;28;20221;-55
2022/01/08 02:45:54;;;;;;;1.33;1.20;;;;;18.40;99861.00;;;;2089009;28;20212;-55
2022/01/08 02:46:54;;;;;;;1.83;1.20;;;;;18.40;99859.00;;;;2094618;28;20217;-55
2022/01/08 02:47:55;;;;;;;1.90;1.23;;;;;18.40;99854.00;;;;2097224;28;20220;-54
2022/01/08 02:48:55;;;;;;;1.30;1.10;;;;;18.40;99858.00;;;;2093589;28;20212;-55
2022/01/08 02:49:56;;;;;;;2.20;1.03;;;;;18.40;99858.00;;;;2088639;28;21048;-54
2022/01/08 02:50:56;;;;;;;1.33;1.10;;;;;18.40;99856.00;;;;2088561;28;20704;-54
2022/01/08 02:51:56;;;;;;;2.00;1.50;;;;;18.30;99856.00;;;;2085533;28;20212;-53
2022/01/08 02:52:57;;;;;;;1.30;1.00;;;;;18.40;99854.00;;;;2085395;28;20217;-54
2022/01/08 02:53:57;;;;;;;1.40;1.30;;;;;18.30;99851.00;;;;2088967;28;20219;-54
2022/01/08 02:54:57;;;;;;;1.27;1.17;;;;;18.40;99852.00;;;;2088823;28;20232;-54
2022/01/08 02:55:57;;;;;;;1.87;1.27;;;;;18.40;99856.00;;;;2088915;28;20219;-54
2022/01/08 02:56:58;;;;;;;1.90;1.30;;;;;18.40;99842.00;;;;2088655;28;20216;-54
2022/01/08 02:57:58;;;;;;;1.33;1.23;;;;;18.40;99838.00;;;;2088754;28;20283;-54
2022/01/08 02:58:58;;;;;;;1.33;1.20;;;;;18.40;99843.00;;;;2088947;28;20201;-54
2022/01/08 02:59:59;;;;;;;1.30;1.20;;;;;18.40;99840.00;;;;2088777;28;20684;-53
2022/01/08 03:00:59;;;;;;;1.77;1.43;;;;;18.40;99835.00;;;;2088527;28;20259;-53
2022/01/08 03:01:59;;;;;;;2.00;1.40;;;;;18.40;99844.00;;;;2088710;28;20694;-54
2022/01/08 03:03:00;;;;;;;1.63;1.13;;;;;18.40;99847.00;;;;2088255;28;20265;-54
2022/01/08 03:04:00;;;;;;;1.43;1.10;;;;;18.40;99849.00;;;;2088883;28;20205;-54
2022/01/08 03:05:01;;;;;;;2.13;1.40;;;;;18.40;99838.00;;;;2088776;28;20216;-55
2022/01/08 03:06:01;;;;;;;1.23;1.13;;;;;18.40;99847.00;;;;2088837;28;20262;-54
2022/01/08 03:07:02;;;;;;;1.47;1.23;;;;;18.40;99846.00;;;;2088705;28;20224;-54
2022/01/08 03:08:02;;;;;;;2.60;1.30;;;;;18.40;99849.00;;;;2088796;28;20265;-54
2022/01/08 03:09:03;;;;;;;1.20;1.10;;;;;18.40;99852.00;;;;2088838;28;20240;-54
2022/01/08 03:10:03;;;;;;;1.80;1.30;;;;;18.40;99857.00;;;;2087958;28;20220;-54
2022/01/08 03:11:03;;;;;;;1.47;1.20;;;;;18.40;99860.00;;;;2087770;28;20201;-54
2022/01/08 03:12:04;;;;;;;1.53;1.30;;;;;18.40;99862.00;;;;2088657;28;20220;-56
2022/01/08 03:13:05;;;;;;;1.50;1.10;;;;;18.40;99862.00;;;;2087712;28;20258;-54
2022/01/08 03:14:05;;;;;;;1.30;1.20;;;;;18.40;99859.00;;;;2088636;28;20221;-54
2022/01/08 03:15:09;;;;;;;2.70;1.27;;;;;18.40;99856.00;;;;2088848;28;20204;-53
2022/01/08 03:16:10;;;;;;;2.05;1.27;;;;;18.40;99863.00;;;;2088657;28;20595;-54
2022/01/08 03:17:10;;;;;;;1.27;1.17;;;;;18.40;99862.00;;;;2088896;28;20217;-54
2022/01/08 03:18:10;;;;;;;1.60;1.10;;;;;18.40;99857.00;;;;2084973;28;20205;-54
2022/01/08 03:19:11;;;;;;;1.53;1.00;;;;;18.30;99858.00;;;;2088842;28;20212;-54
2022/01/08 03:20:13;;;;;;;1.70;1.10;;;;;18.40;99863.00;;;;2087522;28;20787;-54
2022/01/08 03:21:16;;;;;;;1.40;1.30;;;;;18.40;99857.00;;;;2083371;28;20479;-54
2022/01/08 03:22:17;;;;;;;1.75;1.40;;;;;18.30;99851.00;;;;2087433;28;20209;-54
2022/01/08 03:23:18;;;;;;;1.50;1.33;;;;;18.40;99853.00;;;;2086994;28;21031;-54
2022/01/08 03:24:25;;;;;;;1.40;1.13;;;;;18.30;99849.00;;;;2087477;28;20206;-54
2022/01/08 03:25:26;;;;;;;1.38;1.10;;;;;18.40;99844.00;;;;2084924;28;20444;-54
2022/01/08 03:26:27;;;;;;;1.63;1.30;;;;;18.30;99848.00;;;;2088308;28;20238;-54
2022/01/08 03:27:27;;;;;;;1.67;1.30;;;;;18.30;99859.00;;;;2088017;28;20290;-54
2022/01/08 03:28:28;;;;;;;1.53;1.40;;;;;18.30;99854.00;;;;2088207;28;20251;-55
2022/01/08 03:29:28;;;;;;;1.23;1.13;;;;;18.40;99852.00;;;;2088066;28;20208;-54
2022/01/08 03:30:28;;;;;;;1.63;1.20;;;;;18.40;99852.00;;;;2088006;28;20228;-54
2022/01/08 03:31:29;;;;;;;2.20;1.30;;;;;18.30;99853.00;;;;2078761;28;20217;-54
2022/01/08 03:32:29;;;;;;;1.40;1.20;;;;;18.30;99860.00;;;;2088460;28;20212;-54
2022/01/08 03:33:29;;;;;;;1.87;1.20;;;;;18.30;99864.00;;;;2084336;28;20735;-54
2022/01/08 03:34:30;;;;;;;1.40;1.10;;;;;18.30;99865.00;;;;2088359;28;20212;-54
2022/01/08 03:35:30;;;;;;;1.50;1.40;;;;;18.40;99866.00;;;;2088239;28;20222;-54
2022/01/08 03:36:30;;;;;;;1.30;1.20;;;;;18.40;99867.00;;;;2087755;28;20216;-54
2022/01/08 03:37:30;;;;;;;1.60;1.40;;;;;18.40;99860.00;;;;2087961;28;20221;-57
2022/01/08 03:38:31;;;;;;;1.23;1.10;;;;;18.30;99860.00;;;;2088685;28;20553;-56
2022/01/08 03:39:32;;;;;;;2.40;1.37;;;;;18.30;99873.00;;;;2088590;28;20620;-54
2022/01/08 03:40:32;;;;;;;1.30;1.10;;;;;18.30;99873.00;;;;2087283;28;20259;-54
2022/01/08 03:41:32;;;;;;;1.20;1.10;;;;;18.30;99875.00;;;;2088719;28;20217;-54
2022/01/08 03:42:33;;;;;;;1.70;1.40;;;;;18.30;99872.00;;;;2088511;28;20208;-54
2022/01/08 03:43:33;;;;;;;1.47;1.20;;;;;18.30;99867.00;;;;2088599;28;20209;-54
2022/01/08 03:44:33;;;;;;;1.30;1.20;;;;;18.30;99875.00;;;;2088675;28;20237;-54
2022/01/08 03:45:34;;;;;;;1.50;1.23;;;;;18.30;99868.00;;;;2088539;28;20335;-54
2022/01/08 03:46:36;;;;;;;1.80;1.47;;;;;18.30;99872.00;;;;2088515;28;20251;-53
2022/01/08 03:48:04;;;;;;;1.40;1.10;;;;;18.30;99875.00;;;;2088629;28;20575;-54
2022/01/08 03:50:03;;;;;;;1.70;1.40;;;;;18.30;99881.00;;;;2087587;28;20220;-55
2022/01/08 03:51:04;;;;;;;1.90;1.43;;;;;18.30;99882.00;;;;2083849;28;20467;-55
2022/01/08 03:52:04;;;;;;;1.43;1.33;;;;;18.30;99880.00;;;;2087743;28;20228;-55
2022/01/08 03:53:04;;;;;;;2.30;1.40;;;;;18.30;99884.00;;;;2087857;28;20213;-55
2022/01/08 03:54:05;;;;;;;1.57;1.47;;;;;18.30;99884.00;;;;2088513;28;20208;-54
2022/01/08 03:55:05;;;;;;;1.47;1.37;;;;;18.30;99886.00;;;;2088546;28;20205;-55
2022/01/08 03:56:06;;;;;;;1.40;1.30;;;;;18.30;99890.00;;;;2088581;28;20231;-54
2022/01/08 03:57:06;;;;;;;1.80;1.60;;;;;18.30;99886.00;;;;2090939;28;20255;-55
2022/01/08 03:58:07;;;;;;;1.67;1.30;;;;;18.30;99889.00;;;;2092797;28;20748;-54
2022/01/08 03:59:07;;;;;;;1.90;1.20;;;;;18.30;99891.00;;;;2088887;28;20200;-54
2022/01/08 04:00:08;;;;;;;1.53;1.30;;;;;18.30;99892.00;;;;2088540;28;20580;-55
2022/01/08 04:01:08;;;;;;;1.97;1.40;;;;;18.30;99900.00;;;;2088442;28;20631;-55
2022/01/08 04:02:08;;;;;;;1.73;1.13;;;;;18.30;99899.00;;;;2088681;28;20967;-55
2022/01/08 04:03:09;;;;;;;1.33;1.23;;;;;18.30;99901.00;;;;2088502;28;20220;-54
2022/01/08 04:04:09;;;;;;;1.63;1.23;;;;;18.30;99906.00;;;;2088791;28;20696;-54
2022/01/08 04:05:09;;;;;;;1.57;1.30;;;;;18.30;99900.00;;;;2088589;28;20231;-54
2022/01/08 04:06:10;;;;;;;2.00;1.30;;;;;18.30;99907.00;;;;2088413;28;20209;-54
2022/01/08 04:07:10;;;;;;;1.23;1.13;;;;;18.30;99899.00;;;;2088643;28;20220;-55
2022/01/08 04:08:10;;;;;;;1.50;1.30;;;;;18.30;99902.00;;;;2084670;28;20236;-54
2022/01/08 04:09:11;;;;;;;1.47;1.37;;;;;18.30;99907.00;;;;2088468;28;20215;-54
2022/01/08 04:10:11;;;;;;;2.30;1.57;;;;;18.30;99905.00;;;;2088675;28;20213;-54
2022/01/08 04:11:12;;;;;;;1.77;1.20;;;;;18.30;99908.00;;;;2088251;28;20209;-54
2022/01/08 04:12:16;;;;;;;2.13;1.60;;;;;18.30;99904.00;;;;2087817;28;20204;-54
2022/01/08 04:13:22;;;;;;;1.67;1.25;;;;;18.30;99912.00;;;;2087539;28;20205;-54
2022/01/08 04:14:22;;;;;;;1.48;1.38;;;;;18.30;99911.00;;;;2086787;28;20442;-54
2022/01/08 04:16:31;;;;;;;1.30;1.17;;;;;18.30;99914.00;;;;2088738;28;20387;-54
2022/01/08 04:17:31;;;;;;;1.70;1.55;;;;;18.30;99917.00;;;;2088897;28;20229;-54
2022/01/08 04:18:32;;;;;;;1.87;1.20;;;;;18.30;99920.00;;;;2088646;28;20236;-54
2022/01/08 04:19:32;;;;;;;1.57;1.33;;;;;18.30;99922.00;;;;2088756;28;20262;-54
2022/01/08 04:20:36;;;;;;;1.67;1.37;;;;;18.30;99916.00;;;;2086834;28;20286;-54
2022/01/08 04:22:45;;;;;;;2.35;1.33;;;;;18.30;99921.00;;;;2088598;28;20291;-55
2022/01/08 04:23:45;;;;;;;1.40;1.30;;;;;18.30;99921.00;;;;2088297;28;20299;-54
2022/01/08 04:24:46;;;;;;;1.40;1.30;;;;;18.30;99918.00;;;;2088363;28;20231;-54
2022/01/08 04:25:46;;;;;;;1.90;1.50;;;;;18.30;99917.00;;;;2088383;28;20229;-54
2022/01/08 04:26:46;;;;;;;1.83;1.63;;;;;18.30;99919.00;;;;2088562;28;20213;-54
2022/01/08 04:27:47;;;;;;;1.30;1.07;;;;;18.30;99922.00;;;;2088509;28;20640;-54
2022/01/08 04:28:48;;;;;;;1.87;1.53;;;;;18.30;99921.00;;;;2088463;28;20573;-54
2022/01/08 04:29:48;;;;;;;1.45;1.35;;;;;18.30;99933.00;;;;2084759;28;20244;-54
2022/01/08 04:30:49;;;;;;;1.80;1.40;;;;;18.30;99928.00;;;;2086948;28;20205;-54
2022/01/08 04:31:49;;;;;;;1.50;1.37;;;;;18.30;99932.00;;;;2087645;28;20220;-54
2022/01/08 04:32:49;;;;;;;2.03;1.47;;;;;18.30;99918.00;;;;2085298;28;20244;-54
2022/01/08 04:33:50;;;;;;;1.57;1.27;;;;;18.30;99923.00;;;;2088013;28;20228;-54
2022/01/08 04:34:50;;;;;;;1.77;1.50;;;;;18.30;99927.00;;;;2087934;28;20228;-54
2022/01/08 04:35:50;;;;;;;1.60;1.50;;;;;18.20;99931.00;;;;2088006;28;20293;-54
2022/01/08 04:36:51;;;;;;;1.33;1.20;;;;;18.30;99927.00;;;;2087727;28;20667;-54
2022/01/08 04:37:51;;;;;;;1.57;1.40;;;;;18.30;99932.00;;;;2087793;28;20217;-54
2022/01/08 04:38:51;;;;;;;1.73;1.20;;;;;18.30;99929.00;;;;2087996;28;20312;-54
2022/01/08 04:39:52;;;;;;;1.60;1.50;;;;;18.30;99931.00;;;;2087835;28;20308;-54
2022/01/08 04:40:52;;;;;;;1.67;1.50;;;;;18.30;99929.00;;;;2087270;28;20700;-54
2022/01/08 04:41:52;;;;;;;1.53;1.33;;;;;18.30;99924.00;;;;2088248;28;20751;-54
2022/01/08 04:42:53;;;;;;;1.50;1.23;;;;;18.30;99931.00;;;;2088312;28;20209;-54
2022/01/08 04:43:53;;;;;;;2.00;1.77;;;;;18.10;99934.00;;;;2088274;28;20223;-54
2022/01/08 04:44:54;;;;;;;1.47;1.30;;;;;18.30;99939.00;;;;2088246;28;20217;-54
2022/01/08 04:45:55;;;;;;;1.42;1.33;;;;;18.20;99939.00;;;;2088173;28;20278;-54
2022/01/08 04:46:55;;;;;;;1.33;1.13;;;;;18.20;99931.00;;;;2084165;28;20267;-54
2022/01/08 04:47:56;;;;;;;1.50;1.40;;;;;18.30;99936.00;;;;2088166;28;20231;-54
2022/01/08 04:48:56;;;;;;;3.20;1.90;;;;;18.30;99944.00;;;;2088250;28;20213;-54
2022/01/08 04:49:57;;;;;;;1.60;1.47;;;;;18.30;99938.00;;;;2087998;28;20538;-54
2022/01/08 04:50:57;;;;;;;1.60;1.47;;;;;18.20;99941.00;;;;2087785;28;20224;-54
2022/01/08 04:51:57;;;;;;;1.93;1.47;;;;;18.20;99941.00;;;;2087847;28;20235;-54
2022/01/08 04:52:58;;;;;;;2.13;1.67;;;;;18.30;99946.00;;;;2084093;28;20220;-54
2022/01/08 04:53:58;;;;;;;1.70;1.40;;;;;18.30;99948.00;;;;2095823;28;20196;-54
2022/01/08 04:54:58;;;;;;;2.17;1.37;;;;;18.20;99947.00;;;;2087883;28;20209;-54
2022/01/08 04:55:59;;;;;;;2.67;1.80;;;;;18.20;99951.00;;;;2089028;28;20201;-54
2022/01/08 04:56:59;;;;;;;1.90;1.30;;;;;18.30;99949.00;;;;2088132;28;20256;-54
2022/01/08 04:57:59;;;;;;;1.77;1.50;;;;;18.20;99951.00;;;;2088275;28;21083;-54
2022/01/08 04:59:00;;;;;;;2.00;1.60;;;;;18.20;99947.00;;;;2088039;28;20723;-54
2022/01/08 05:00:00;;;;;;;2.10;1.60;;;;;18.20;99951.00;;;;2088035;28;20684;-54
2022/01/08 05:01:00;;;;;;;1.87;1.53;;;;;18.20;99951.00;;;;2087749;28;20243;-54
2022/01/08 05:02:01;;;;;;;1.97;1.40;;;;;18.20;99950.00;;;;2087586;28;20260;-54
2022/01/08 05:03:01;;;;;;;1.80;1.20;;;;;18.20;99958.00;;;;2087987;28;20308;-54
2022/01/08 05:04:02;;;;;;;1.67;1.30;;;;;18.20;99954.00;;;;2087795;28;20741;-54
2022/01/08 05:05:02;;;;;;;2.00;1.57;;;;;18.30;99945.00;;;;2088017;28;20208;-54
2022/01/08 05:06:03;;;;;;;1.63;1.53;;;;;18.30;99955.00;;;;2087963;28;20213;-54
2022/01/08 05:07:03;;;;;;;1.73;1.60;;;;;18.30;99959.00;;;;2087791;28;20223;-54
2022/01/08 05:08:04;;;;;;;2.20;2.00;;;;;18.20;99959.00;;;;2087371;28;22173;-54
2022/01/08 05:09:04;;;;;;;1.73;1.43;;;;;18.20;99955.00;;;;2087691;28;20216;-54
2022/01/08 05:10:05;;;;;;;1.30;1.20;;;;;18.20;99969.00;;;;2087687;28;20258;-54
2022/01/08 05:11:05;;;;;;;1.90;1.70;;;;;18.20;99955.00;;;;2087164;28;20654;-54
2022/01/08 05:12:06;;;;;;;1.83;1.50;;;;;18.20;99955.00;;;;2087681;28;20456;-54
2022/01/08 05:13:06;;;;;;;1.30;1.20;;;;;18.20;99955.00;;;;2087472;28;20251;-54
2022/01/08 05:14:09;;;;;;;2.20;1.73;;;;;18.20;99951.00;;;;2086647;28;20765;-54
2022/01/08 05:15:10;;;;;;;1.75;1.30;;;;;18.20;99958.00;;;;2087773;28;20764;-54
2022/01/08 05:16:10;;;;;;;1.60;1.40;;;;;18.20;99956.00;;;;2087692;28;20262;-54
2022/01/08 05:17:13;;;;;;;2.23;1.70;;;;;18.20;99952.00;;;;2084174;28;20951;-54
2022/01/08 05:18:13;;;;;;;2.25;1.70;;;;;18.20;99949.00;;;;2078197;28;20446;-54
2022/01/08 05:19:21;;;;;;;2.20;1.90;;;;;18.20;99952.00;;;;2087566;28;20587;-54
2022/01/08 05:20:22;;;;;;;1.70;1.50;;;;;18.20;99954.00;;;;2084257;28;20216;-54
2022/01/08 05:21:25;;;;;;;2.10;1.90;;;;;18.20;99952.00;;;;2076190;28;20266;-54
2022/01/08 05:22:29;;;;;;;1.88;1.67;;;;;18.20;99956.00;;;;2084815;28;20937;-54
2022/01/08 05:23:29;;;;;;;2.05;1.58;;;;;18.20;99949.00;;;;2085161;28;20292;-54
2022/01/08 05:24:29;;;;;;;1.60;1.30;;;;;18.20;99945.00;;;;2083545;28;20298;-54
2022/01/08 05:25:30;;;;;;;2.10;1.60;;;;;18.20;99946.00;;;;2079416;28;20213;-54
2022/01/08 05:26:30;;;;;;;1.43;1.33;;;;;18.20;99957.00;;;;2090858;28;20300;-54